Portada
METAR-TAF:

METAR-TAF

Aeroports :

Makhatxkalà, Rússia

latitud: 42-49-01N, longitud: 047-39-08E, altitud: 4 m

Observació

L'informe es va fer fa 37 minuts, a les 19:00 UTC
Vent 6 kt del Sud/Sud-Oest
Temperatura 7°C
Humitat 81%
Pressió 1004 hPa
Visibilitat 10 km o més

METAR: URML 291900Z 21003MPS 9999 NSC 07/04 Q1004 R14/01//70 NOSIG RMK QFE753/1004

Hora: 22:37 (19:37 UTC)

Pronòstic

L'informe es va fer fa 2 hores i 37 minuts, a les 17:00 UTC
Pronòstic vàlid del 29 a les 18 UTC al 30 a les 03 UTC
Vent 6 kt del Sud amb ràfegues de 19 kt
Visibilitat: 6000 m
Núvols disperses a una alçada de 2000 ft
Temporalment
l' 29 a les 18 UTC al 29 a les 20 UTC
Núvols disperses a una alçada de 700 ft
Temporalment
l' 29 a les 20 UTC al 29 a les 24 UTC
Cel ennuvolat a una alçada de 500 ft

TAF: URML 291700Z 2918/3003 17003G10MPS 6000 SCT020 TEMPO 2918/2920 SCT007 TEMPO 2920/2924 BKN005

Observacions i pronòstics meteorològics de més de 4000 aeroports (METAR i TAF).

Les estacions disponibles són els punts grocs i vermells al mapa.

Posi el ratolí al punt desitjat per veure el nom de l'estació.

Feu clic per veure les observacions i els pronòstics meteorològics.

Per canviar el mapa: feu clic els botons verds amb una creu de color negre per apropar; al botó verd amb un guió per allunyar la imatge; o en les fletxes verdes per a mapes adjacents.


METAR-TAF: